EGMCEGSH

Guest
Details From EGMC - Southend
To EGSH - Norwich
Flight Number -
Tags Generated
Created
Modified
Stats Distance 70 nm / 130 km
Max Altitude 0 ft / 0 m
Waypoints 2
Social Downloads 1
Likes 0
Share VATSIM

Download

Looking for another format? Having issues loading an existing format? Contact us
Advertisement - Login to hide

Notes

Generated

Route

EGMC EGSH

ID Type Via Altitude Latitude Longitude Leg Dist Tot Dist Heading (true) Name
O EGMC APT - 0 ft / 0 m 51.56725˚ 0.68627˚ - 0 nm - -
O EGSH APT - 0 ft / 0 m 52.67429˚ 1.28208˚ 70 nm 70 nm 18° / 19° -

Altitude Profile

Advertisement - Login to hide

EGMC

Details ICAO EGMC (SEN)
Name Southend
Region United Kingdom
Timezone Europe/London (UTC+0.0)
Stats Elevation 49 ft / 15 m (AMSL)
Location 51.571443° 0.695583°
Runways 1
Magnetic Variation 0.170° W

METAR

EGMC 170620Z 24004KT CAVOK M03/M03 Q1024

Decode

TAF

Not found

Departure Runways

ID Width Length Bearing (true) Bearing (mag) Surface Threshold Offset Overrun Length
06 121 ft / 37 m 5,230 ft / 1,594 m 54.10° 54.27° Asphalt 558 ft / 170 m 0 ft / 0 m
24 121 ft / 37 m 5,230 ft / 1,594 m 234.11° 234.28° Asphalt 466 ft / 142 m 0 ft / 0 m

EGSH

Details ICAO EGSH (NWI)
Name Norwich
Region United Kingdom
Timezone Europe/London (UTC+0.0)
Stats Elevation 117 ft / 36 m (AMSL)
Location 52.676860° 1.284493°
Runways 2
Magnetic Variation 0.075° W

METAR

EGSH 170620Z 25006KT 8000 NSC M03/M03 Q1023 TEMPO 5000 BR

Decode

TAF

Not found

Destination Runways

ID Width Length Bearing (true) Bearing (mag) Surface Threshold Offset Overrun Length
09 148 ft / 45 m 6,023 ft / 1,836 m 89.29° 89.37° Asphalt 0 ft / 0 m 0 ft / 0 m
21 141 ft / 43 m 5,148 ft / 1,569 m 216.41° 216.49° Asphalt 0 ft / 0 m 0 ft / 0 m
27 148 ft / 45 m 6,023 ft / 1,836 m 269.31° 269.39° Asphalt 0 ft / 0 m 0 ft / 0 m
3 141 ft / 43 m 5,148 ft / 1,569 m 36.39° 36.47° Asphalt 991 ft / 302 m 0 ft / 0 m

Approach Navaids

Runway Type Ident Frequency Range Bearing (true) Bearing (mag) Slope Elevation
27 Localiser INH 110.90 MHz 18 nm / 33 km 269.24° 269.31° - 117 ft / 36 m (AMSL)
27 Glidescope INH 110.90 MHz 10 nm / 19 km 269.30° 269.38° 3.00° 117 ft / 36 m (AMSL)
27 DME INH 110.90 MHz 18 nm / 33 km - - - 137 ft / 42 m (AMSL)